sensor_id;sensor_type;location;lat;lon;timestamp;P1;durP1;ratioP1;P2;durP2;ratioP2
56537;SDS011;42435;53.292;6.000;2022-11-23T00:00:00;19.00;;;11.60;;
56537;SDS011;42435;53.292;6.000;2022-11-23T00:02:27;18.15;;;12.77;;
56537;SDS011;42435;53.292;6.000;2022-11-23T00:04:52;20.15;;;13.27;;
56537;SDS011;42435;53.292;6.000;2022-11-23T00:07:18;19.48;;;12.05;;
56537;SDS011;42435;53.292;6.000;2022-11-23T00:09:43;20.02;;;12.10;;
56537;SDS011;42435;53.292;6.000;2022-11-23T00:12:09;19.50;;;12.32;;
56537;SDS011;42435;53.292;6.000;2022-11-23T00:14:34;20.08;;;12.43;;
56537;SDS011;42435;53.292;6.000;2022-11-23T00:17:00;20.35;;;12.50;;
56537;SDS011;42435;53.292;6.000;2022-11-23T00:19:26;18.27;;;12.43;;
56537;SDS011;42435;53.292;6.000;2022-11-23T00:21:51;17.15;;;12.10;;
56537;SDS011;42435;53.292;6.000;2022-11-23T00:24:17;17.75;;;11.95;;
56537;SDS011;42435;53.292;6.000;2022-11-23T00:26:42;21.58;;;13.15;;
56537;SDS011;42435;53.292;6.000;2022-11-23T00:29:08;18.67;;;11.95;;
56537;SDS011;42435;53.292;6.000;2022-11-23T00:31:33;19.58;;;12.18;;
56537;SDS011;42435;53.292;6.000;2022-11-23T00:33:59;18.50;;;12.07;;
56537;SDS011;42435;53.292;6.000;2022-11-23T00:36:25;21.25;;;12.43;;
56537;SDS011;42435;53.292;6.000;2022-11-23T00:38:52;20.17;;;12.10;;
56537;SDS011;42435;53.292;6.000;2022-11-23T00:41:19;20.73;;;12.77;;
56537;SDS011;42435;53.292;6.000;2022-11-23T00:43:47;16.95;;;11.73;;
56537;SDS011;42435;53.292;6.000;2022-11-23T00:48:44;16.85;;;11.75;;
56537;SDS011;42435;53.292;6.000;2022-11-23T00:51:11;18.05;;;11.52;;
56537;SDS011;42435;53.292;6.000;2022-11-23T00:53:39;17.00;;;11.65;;
56537;SDS011;42435;53.292;6.000;2022-11-23T00:56:05;20.70;;;12.73;;
56537;SDS011;42435;53.292;6.000;2022-11-23T00:58:31;21.25;;;12.75;;
56537;SDS011;42435;53.292;6.000;2022-11-23T01:03:41;23.60;;;12.15;;
56537;SDS011;42435;53.292;6.000;2022-11-23T01:06:14;18.67;;;11.98;;
56537;SDS011;42435;53.292;6.000;2022-11-23T01:08:52;20.63;;;12.38;;
56537;SDS011;42435;53.292;6.000;2022-11-23T01:11:19;26.63;;;13.35;;
56537;SDS011;42435;53.292;6.000;2022-11-23T01:13:46;21.35;;;12.57;;
56537;SDS011;42435;53.292;6.000;2022-11-23T01:16:13;19.38;;;12.52;;
56537;SDS011;42435;53.292;6.000;2022-11-23T01:18:40;19.33;;;12.70;;
56537;SDS011;42435;53.292;6.000;2022-11-23T01:21:06;21.23;;;13.80;;
56537;SDS011;42435;53.292;6.000;2022-11-23T01:23:32;20.40;;;12.55;;
56537;SDS011;42435;53.292;6.000;2022-11-23T01:26:02;23.65;;;13.27;;
56537;SDS011;42435;53.292;6.000;2022-11-23T01:28:32;21.00;;;12.70;;
56537;SDS011;42435;53.292;6.000;2022-11-23T01:31:05;25.42;;;13.77;;
56537;SDS011;42435;53.292;6.000;2022-11-23T01:33:32;21.77;;;12.63;;
56537;SDS011;42435;53.292;6.000;2022-11-23T01:35:58;19.55;;;12.50;;
56537;SDS011;42435;53.292;6.000;2022-11-23T01:38:24;21.23;;;13.18;;
56537;SDS011;42435;53.292;6.000;2022-11-23T01:40:49;25.83;;;14.63;;
56537;SDS011;42435;53.292;6.000;2022-11-23T01:43:15;22.33;;;12.77;;
56537;SDS011;42435;53.292;6.000;2022-11-23T01:46:03;20.15;;;12.90;;
56537;SDS011;42435;53.292;6.000;2022-11-23T01:48:36;23.70;;;14.02;;
56537;SDS011;42435;53.292;6.000;2022-11-23T01:51:10;21.67;;;12.98;;
56537;SDS011;42435;53.292;6.000;2022-11-23T01:53:40;24.10;;;14.27;;
56537;SDS011;42435;53.292;6.000;2022-11-23T01:56:07;25.77;;;13.90;;
56537;SDS011;42435;53.292;6.000;2022-11-23T01:58:37;24.83;;;14.02;;
56537;SDS011;42435;53.292;6.000;2022-11-23T02:01:05;24.83;;;13.68;;
56537;SDS011;42435;53.292;6.000;2022-11-23T02:03:32;28.58;;;15.13;;
56537;SDS011;42435;53.292;6.000;2022-11-23T02:06:01;23.23;;;14.70;;
56537;SDS011;42435;53.292;6.000;2022-11-23T02:08:29;22.10;;;13.77;;
56537;SDS011;42435;53.292;6.000;2022-11-23T02:10:56;23.58;;;14.10;;
56537;SDS011;42435;53.292;6.000;2022-11-23T02:13:22;27.33;;;15.10;;
56537;SDS011;42435;53.292;6.000;2022-11-23T02:15:49;29.48;;;14.93;;
56537;SDS011;42435;53.292;6.000;2022-11-23T02:18:17;25.17;;;14.35;;
56537;SDS011;42435;53.292;6.000;2022-11-23T02:20:46;27.48;;;15.02;;
56537;SDS011;42435;53.292;6.000;2022-11-23T02:26:01;27.00;;;14.45;;
56537;SDS011;42435;53.292;6.000;2022-11-23T02:28:30;25.85;;;14.73;;
56537;SDS011;42435;53.292;6.000;2022-11-23T02:30:59;27.05;;;14.65;;
56537;SDS011;42435;53.292;6.000;2022-11-23T02:33:26;25.08;;;15.15;;
56537;SDS011;42435;53.292;6.000;2022-11-23T02:35:54;25.80;;;14.63;;
56537;SDS011;42435;53.292;6.000;2022-11-23T02:38:25;23.92;;;14.85;;
56537;SDS011;42435;53.292;6.000;2022-11-23T02:40:52;30.10;;;15.15;;
56537;SDS011;42435;53.292;6.000;2022-11-23T02:43:18;26.77;;;15.73;;
56537;SDS011;42435;53.292;6.000;2022-11-23T02:45:52;30.52;;;15.80;;
56537;SDS011;42435;53.292;6.000;2022-11-23T02:48:20;28.23;;;15.25;;
56537;SDS011;42435;53.292;6.000;2022-11-23T02:50:46;30.35;;;16.15;;
56537;SDS011;42435;53.292;6.000;2022-11-23T02:53:12;30.52;;;17.35;;
56537;SDS011;42435;53.292;6.000;2022-11-23T02:55:38;34.75;;;15.45;;
56537;SDS011;42435;53.292;6.000;2022-11-23T02:58:04;31.52;;;17.02;;
56537;SDS011;42435;53.292;6.000;2022-11-23T03:00:30;29.13;;;17.60;;
56537;SDS011;42435;53.292;6.000;2022-11-23T03:02:57;28.65;;;15.35;;
56537;SDS011;42435;53.292;6.000;2022-11-23T03:05:24;28.00;;;16.13;;
56537;SDS011;42435;53.292;6.000;2022-11-23T03:07:49;30.73;;;15.73;;
56537;SDS011;42435;53.292;6.000;2022-11-23T03:10:15;28.55;;;15.18;;
56537;SDS011;42435;53.292;6.000;2022-11-23T03:12:41;27.52;;;15.52;;
56537;SDS011;42435;53.292;6.000;2022-11-23T03:15:07;29.48;;;15.65;;
56537;SDS011;42435;53.292;6.000;2022-11-23T03:17:33;31.95;;;15.57;;
56537;SDS011;42435;53.292;6.000;2022-11-23T03:19:59;24.77;;;14.75;;
56537;SDS011;42435;53.292;6.000;2022-11-23T03:22:25;26.83;;;15.40;;
56537;SDS011;42435;53.292;6.000;2022-11-23T03:24:50;27.17;;;15.57;;
56537;SDS011;42435;53.292;6.000;2022-11-23T03:27:16;28.35;;;15.73;;
56537;SDS011;42435;53.292;6.000;2022-11-23T03:29:42;27.73;;;15.93;;
56537;SDS011;42435;53.292;6.000;2022-11-23T03:32:08;31.90;;;15.85;;
56537;SDS011;42435;53.292;6.000;2022-11-23T03:34:33;28.00;;;16.90;;
56537;SDS011;42435;53.292;6.000;2022-11-23T03:36:59;31.42;;;17.67;;
56537;SDS011;42435;53.292;6.000;2022-11-23T03:39:25;32.13;;;17.23;;
56537;SDS011;42435;53.292;6.000;2022-11-23T03:41:50;32.70;;;18.25;;
56537;SDS011;42435;53.292;6.000;2022-11-23T03:44:16;32.65;;;17.52;;
56537;SDS011;42435;53.292;6.000;2022-11-23T03:46:41;30.48;;;16.60;;
56537;SDS011;42435;53.292;6.000;2022-11-23T03:49:07;35.03;;;17.92;;
56537;SDS011;42435;53.292;6.000;2022-11-23T03:51:32;32.42;;;17.92;;
56537;SDS011;42435;53.292;6.000;2022-11-23T03:53:58;38.88;;;17.80;;
56537;SDS011;42435;53.292;6.000;2022-11-23T03:56:24;36.20;;;18.75;;
56537;SDS011;42435;53.292;6.000;2022-11-23T03:58:49;31.05;;;17.98;;
56537;SDS011;42435;53.292;6.000;2022-11-23T04:01:15;32.72;;;18.05;;
56537;SDS011;42435;53.292;6.000;2022-11-23T04:03:40;34.28;;;18.70;;
56537;SDS011;42435;53.292;6.000;2022-11-23T04:06:06;35.40;;;20.00;;
56537;SDS011;42435;53.292;6.000;2022-11-23T04:08:32;37.05;;;19.88;;
56537;SDS011;42435;53.292;6.000;2022-11-23T04:10:57;42.15;;;19.63;;
56537;SDS011;42435;53.292;6.000;2022-11-23T04:13:23;36.95;;;19.30;;
56537;SDS011;42435;53.292;6.000;2022-11-23T04:15:49;38.20;;;20.13;;
56537;SDS011;42435;53.292;6.000;2022-11-23T04:18:15;42.60;;;20.73;;
56537;SDS011;42435;53.292;6.000;2022-11-23T04:20:40;40.92;;;20.45;;
56537;SDS011;42435;53.292;6.000;2022-11-23T04:23:06;41.22;;;19.20;;
56537;SDS011;42435;53.292;6.000;2022-11-23T04:25:32;39.80;;;21.85;;
56537;SDS011;42435;53.292;6.000;2022-11-23T04:27:57;37.53;;;20.38;;
56537;SDS011;42435;53.292;6.000;2022-11-23T04:30:23;41.92;;;20.77;;
56537;SDS011;42435;53.292;6.000;2022-11-23T04:32:49;36.13;;;21.38;;
56537;SDS011;42435;53.292;6.000;2022-11-23T04:35:14;37.00;;;21.25;;
56537;SDS011;42435;53.292;6.000;2022-11-23T04:37:40;43.78;;;21.30;;
56537;SDS011;42435;53.292;6.000;2022-11-23T04:40:06;40.03;;;22.20;;
56537;SDS011;42435;53.292;6.000;2022-11-23T04:42:32;42.20;;;20.83;;
56537;SDS011;42435;53.292;6.000;2022-11-23T04:44:57;39.83;;;21.95;;
56537;SDS011;42435;53.292;6.000;2022-11-23T04:47:23;43.78;;;22.65;;
56537;SDS011;42435;53.292;6.000;2022-11-23T04:49:49;39.70;;;21.55;;
56537;SDS011;42435;53.292;6.000;2022-11-23T04:52:15;41.95;;;22.35;;
56537;SDS011;42435;53.292;6.000;2022-11-23T04:54:41;35.13;;;20.80;;
56537;SDS011;42435;53.292;6.000;2022-11-23T04:57:06;43.47;;;22.45;;
56537;SDS011;42435;53.292;6.000;2022-11-23T04:59:32;42.72;;;22.58;;
56537;SDS011;42435;53.292;6.000;2022-11-23T05:01:58;48.13;;;23.67;;
56537;SDS011;42435;53.292;6.000;2022-11-23T05:04:23;41.97;;;20.85;;
56537;SDS011;42435;53.292;6.000;2022-11-23T05:06:49;62.15;;;34.97;;
56537;SDS011;42435;53.292;6.000;2022-11-23T05:09:15;46.50;;;25.90;;
56537;SDS011;42435;53.292;6.000;2022-11-23T05:11:43;48.33;;;25.65;;
56537;SDS011;42435;53.292;6.000;2022-11-23T05:14:09;44.13;;;24.85;;
56537;SDS011;42435;53.292;6.000;2022-11-23T05:16:34;45.15;;;24.23;;
56537;SDS011;42435;53.292;6.000;2022-11-23T05:19:00;48.40;;;27.38;;
56537;SDS011;42435;53.292;6.000;2022-11-23T05:21:26;52.67;;;24.85;;
56537;SDS011;42435;53.292;6.000;2022-11-23T05:23:51;50.38;;;27.95;;
56537;SDS011;42435;53.292;6.000;2022-11-23T05:26:17;45.33;;;24.45;;
56537;SDS011;42435;53.292;6.000;2022-11-23T05:28:43;43.05;;;24.85;;
56537;SDS011;42435;53.292;6.000;2022-11-23T05:31:08;46.00;;;25.45;;
56537;SDS011;42435;53.292;6.000;2022-11-23T05:33:36;44.25;;;23.95;;
56537;SDS011;42435;53.292;6.000;2022-11-23T05:36:02;47.60;;;22.73;;
56537;SDS011;42435;53.292;6.000;2022-11-23T05:38:28;45.58;;;23.05;;
56537;SDS011;42435;53.292;6.000;2022-11-23T05:40:54;45.33;;;24.85;;
56537;SDS011;42435;53.292;6.000;2022-11-23T05:43:19;49.15;;;24.52;;
56537;SDS011;42435;53.292;6.000;2022-11-23T05:45:45;49.53;;;25.23;;
56537;SDS011;42435;53.292;6.000;2022-11-23T05:48:10;48.22;;;25.05;;
56537;SDS011;42435;53.292;6.000;2022-11-23T05:50:36;52.28;;;26.45;;
56537;SDS011;42435;53.292;6.000;2022-11-23T05:53:02;43.53;;;25.27;;
56537;SDS011;42435;53.292;6.000;2022-11-23T05:55:27;52.20;;;26.90;;
56537;SDS011;42435;53.292;6.000;2022-11-23T05:57:53;52.97;;;27.40;;
56537;SDS011;42435;53.292;6.000;2022-11-23T06:00:19;53.38;;;26.83;;
56537;SDS011;42435;53.292;6.000;2022-11-23T06:02:45;46.90;;;25.30;;
56537;SDS011;42435;53.292;6.000;2022-11-23T06:05:11;52.50;;;27.65;;
56537;SDS011;42435;53.292;6.000;2022-11-23T06:07:36;51.28;;;26.92;;
56537;SDS011;42435;53.292;6.000;2022-11-23T06:10:03;50.97;;;27.65;;
56537;SDS011;42435;53.292;6.000;2022-11-23T06:12:30;52.88;;;26.25;;
56537;SDS011;42435;53.292;6.000;2022-11-23T06:14:55;56.60;;;28.48;;
56537;SDS011;42435;53.292;6.000;2022-11-23T06:17:21;58.00;;;28.02;;
56537;SDS011;42435;53.292;6.000;2022-11-23T06:19:47;51.20;;;27.42;;
56537;SDS011;42435;53.292;6.000;2022-11-23T06:22:13;50.67;;;24.73;;
56537;SDS011;42435;53.292;6.000;2022-11-23T06:24:39;47.28;;;24.67;;
56537;SDS011;42435;53.292;6.000;2022-11-23T06:27:05;46.72;;;23.42;;
56537;SDS011;42435;53.292;6.000;2022-11-23T06:29:31;50.85;;;23.20;;
56537;SDS011;42435;53.292;6.000;2022-11-23T06:31:56;47.60;;;25.27;;
56537;SDS011;42435;53.292;6.000;2022-11-23T06:34:22;48.28;;;26.20;;
56537;SDS011;42435;53.292;6.000;2022-11-23T06:36:48;51.22;;;26.35;;
56537;SDS011;42435;53.292;6.000;2022-11-23T06:39:13;49.60;;;22.90;;
56537;SDS011;42435;53.292;6.000;2022-11-23T06:41:39;40.20;;;22.98;;
56537;SDS011;42435;53.292;6.000;2022-11-23T06:44:04;44.92;;;22.70;;
56537;SDS011;42435;53.292;6.000;2022-11-23T06:46:30;41.17;;;20.58;;
56537;SDS011;42435;53.292;6.000;2022-11-23T06:48:56;45.40;;;24.92;;
56537;SDS011;42435;53.292;6.000;2022-11-23T06:51:22;42.67;;;22.83;;
56537;SDS011;42435;53.292;6.000;2022-11-23T06:53:48;38.85;;;21.48;;
56537;SDS011;42435;53.292;6.000;2022-11-23T06:56:14;40.97;;;22.63;;
56537;SDS011;42435;53.292;6.000;2022-11-23T06:58:39;35.70;;;19.00;;
56537;SDS011;42435;53.292;6.000;2022-11-23T07:01:06;35.70;;;20.02;;
56537;SDS011;42435;53.292;6.000;2022-11-23T07:03:34;41.25;;;21.75;;
56537;SDS011;42435;53.292;6.000;2022-11-23T07:06:06;34.78;;;19.17;;
56537;SDS011;42435;53.292;6.000;2022-11-23T07:08:33;35.75;;;17.60;;
56537;SDS011;42435;53.292;6.000;2022-11-23T07:11:00;29.00;;;17.88;;
56537;SDS011;42435;53.292;6.000;2022-11-23T07:13:30;33.70;;;20.17;;
56537;SDS011;42435;53.292;6.000;2022-11-23T07:15:56;32.70;;;17.85;;
56537;SDS011;42435;53.292;6.000;2022-11-23T07:18:23;37.85;;;17.98;;
56537;SDS011;42435;53.292;6.000;2022-11-23T07:20:49;29.70;;;15.40;;
56537;SDS011;42435;53.292;6.000;2022-11-23T07:23:15;26.50;;;16.17;;
56537;SDS011;42435;53.292;6.000;2022-11-23T07:25:40;30.20;;;16.13;;
56537;SDS011;42435;53.292;6.000;2022-11-23T07:28:07;31.75;;;15.73;;
56537;SDS011;42435;53.292;6.000;2022-11-23T07:30:33;27.75;;;15.48;;
56537;SDS011;42435;53.292;6.000;2022-11-23T07:33:00;33.53;;;15.93;;
56537;SDS011;42435;53.292;6.000;2022-11-23T07:35:27;32.17;;;15.68;;
56537;SDS011;42435;53.292;6.000;2022-11-23T07:37:53;35.28;;;20.13;;
56537;SDS011;42435;53.292;6.000;2022-11-23T07:40:19;29.50;;;15.73;;
56537;SDS011;42435;53.292;6.000;2022-11-23T07:42:44;30.95;;;16.13;;
56537;SDS011;42435;53.292;6.000;2022-11-23T07:45:10;25.05;;;13.65;;
56537;SDS011;42435;53.292;6.000;2022-11-23T07:47:36;27.90;;;14.23;;
56537;SDS011;42435;53.292;6.000;2022-11-23T07:50:03;29.25;;;15.18;;
56537;SDS011;42435;53.292;6.000;2022-11-23T07:52:31;25.13;;;14.60;;
56537;SDS011;42435;53.292;6.000;2022-11-23T07:54:57;23.20;;;13.57;;
56537;SDS011;42435;53.292;6.000;2022-11-23T07:57:24;24.00;;;13.13;;
56537;SDS011;42435;53.292;6.000;2022-11-23T07:59:50;21.33;;;12.75;;
56537;SDS011;42435;53.292;6.000;2022-11-23T08:02:16;25.60;;;13.02;;
56537;SDS011;42435;53.292;6.000;2022-11-23T08:04:41;28.15;;;12.57;;
56537;SDS011;42435;53.292;6.000;2022-11-23T08:07:07;25.67;;;13.07;;
56537;SDS011;42435;53.292;6.000;2022-11-23T08:09:32;22.98;;;12.45;;
56537;SDS011;42435;53.292;6.000;2022-11-23T08:11:58;18.95;;;11.13;;
56537;SDS011;42435;53.292;6.000;2022-11-23T08:14:24;25.80;;;11.95;;
56537;SDS011;42435;53.292;6.000;2022-11-23T08:16:49;19.10;;;10.05;;
56537;SDS011;42435;53.292;6.000;2022-11-23T08:19:15;19.08;;;10.75;;
56537;SDS011;42435;53.292;6.000;2022-11-23T08:21:41;17.23;;;11.00;;
56537;SDS011;42435;53.292;6.000;2022-11-23T08:24:08;22.83;;;10.02;;
56537;SDS011;42435;53.292;6.000;2022-11-23T08:26:33;23.88;;;10.32;;
56537;SDS011;42435;53.292;6.000;2022-11-23T08:28:59;20.67;;;10.85;;
56537;SDS011;42435;53.292;6.000;2022-11-23T08:31:25;19.50;;;11.68;;
56537;SDS011;42435;53.292;6.000;2022-11-23T08:33:50;21.35;;;11.23;;
56537;SDS011;42435;53.292;6.000;2022-11-23T08:36:16;19.05;;;11.40;;
56537;SDS011;42435;53.292;6.000;2022-11-23T08:38:41;24.42;;;11.30;;
56537;SDS011;42435;53.292;6.000;2022-11-23T08:41:07;21.67;;;10.82;;
56537;SDS011;42435;53.292;6.000;2022-11-23T08:43:33;15.93;;;10.07;;
56537;SDS011;42435;53.292;6.000;2022-11-23T08:45:59;21.30;;;10.38;;
56537;SDS011;42435;53.292;6.000;2022-11-23T08:48:26;17.92;;;10.65;;
56537;SDS011;42435;53.292;6.000;2022-11-23T08:50:52;20.15;;;10.70;;
56537;SDS011;42435;53.292;6.000;2022-11-23T08:53:18;20.13;;;10.55;;
56537;SDS011;42435;53.292;6.000;2022-11-23T08:55:43;20.25;;;10.85;;
56537;SDS011;42435;53.292;6.000;2022-11-23T08:58:09;21.60;;;11.02;;
56537;SDS011;42435;53.292;6.000;2022-11-23T09:00:35;19.85;;;11.25;;
56537;SDS011;42435;53.292;6.000;2022-11-23T09:03:02;20.75;;;10.13;;
56537;SDS011;42435;53.292;6.000;2022-11-23T09:05:28;21.58;;;10.73;;
56537;SDS011;42435;53.292;6.000;2022-11-23T09:07:54;19.50;;;10.02;;
56537;SDS011;42435;53.292;6.000;2022-11-23T09:10:23;21.10;;;10.82;;
56537;SDS011;42435;53.292;6.000;2022-11-23T09:12:49;19.00;;;10.65;;
56537;SDS011;42435;53.292;6.000;2022-11-23T09:15:15;23.63;;;11.02;;
56537;SDS011;42435;53.292;6.000;2022-11-23T09:17:41;18.70;;;9.35;;
56537;SDS011;42435;53.292;6.000;2022-11-23T09:20:07;16.13;;;9.48;;
56537;SDS011;42435;53.292;6.000;2022-11-23T09:22:34;17.95;;;9.48;;
56537;SDS011;42435;53.292;6.000;2022-11-23T09:24:59;21.08;;;10.98;;
56537;SDS011;42435;53.292;6.000;2022-11-23T09:27:25;14.90;;;9.00;;
56537;SDS011;42435;53.292;6.000;2022-11-23T09:29:51;17.73;;;8.63;;
56537;SDS011;42435;53.292;6.000;2022-11-23T09:32:16;18.30;;;9.98;;
56537;SDS011;42435;53.292;6.000;2022-11-23T09:34:42;17.52;;;9.73;;
56537;SDS011;42435;53.292;6.000;2022-11-23T09:37:09;16.40;;;8.82;;
56537;SDS011;42435;53.292;6.000;2022-11-23T09:39:35;19.13;;;9.35;;
56537;SDS011;42435;53.292;6.000;2022-11-23T09:45:01;15.00;;;7.50;;
56537;SDS011;42435;53.292;6.000;2022-11-23T09:53:14;15.93;;;6.90;;
56537;SDS011;42435;53.292;6.000;2022-11-23T09:56:00;14.50;;;7.68;;
56537;SDS011;42435;53.292;6.000;2022-11-23T09:58:28;14.45;;;7.35;;
56537;SDS011;42435;53.292;6.000;2022-11-23T10:01:03;16.58;;;7.32;;
56537;SDS011;42435;53.292;6.000;2022-11-23T10:03:33;20.75;;;7.43;;
56537;SDS011;42435;53.292;6.000;2022-11-23T10:06:06;16.33;;;8.82;;
56537;SDS011;42435;53.292;6.000;2022-11-23T10:08:48;19.88;;;10.27;;
56537;SDS011;42435;53.292;6.000;2022-11-23T10:25:15;16.17;;;7.50;;
56537;SDS011;42435;53.292;6.000;2022-11-23T10:27:42;12.75;;;6.70;;
56537;SDS011;42435;53.292;6.000;2022-11-23T10:30:11;19.00;;;8.73;;
56537;SDS011;42435;53.292;6.000;2022-11-23T10:32:46;16.17;;;7.03;;
56537;SDS011;42435;53.292;6.000;2022-11-23T10:35:27;16.33;;;6.95;;
56537;SDS011;42435;53.292;6.000;2022-11-23T10:38:11;15.77;;;7.57;;
56537;SDS011;42435;53.292;6.000;2022-11-23T10:40:40;12.88;;;6.95;;
56537;SDS011;42435;53.292;6.000;2022-11-23T10:43:14;16.90;;;8.18;;
56537;SDS011;42435;53.292;6.000;2022-11-23T10:45:44;18.58;;;7.88;;
56537;SDS011;42435;53.292;6.000;2022-11-23T10:48:10;17.88;;;6.85;;
56537;SDS011;42435;53.292;6.000;2022-11-23T10:50:36;18.13;;;6.68;;
56537;SDS011;42435;53.292;6.000;2022-11-23T10:55:49;17.88;;;6.53;;
56537;SDS011;42435;53.292;6.000;2022-11-23T10:58:28;14.98;;;6.28;;
56537;SDS011;42435;53.292;6.000;2022-11-23T11:01:10;16.17;;;6.25;;
56537;SDS011;42435;53.292;6.000;2022-11-23T11:03:38;20.08;;;6.25;;
56537;SDS011;42435;53.292;6.000;2022-11-23T11:06:04;17.17;;;5.88;;
56537;SDS011;42435;53.292;6.000;2022-11-23T11:08:31;22.45;;;6.53;;
56537;SDS011;42435;53.292;6.000;2022-11-23T11:11:05;9.00;;;4.70;;
56537;SDS011;42435;53.292;6.000;2022-11-23T11:13:43;12.48;;;5.00;;
56537;SDS011;42435;53.292;6.000;2022-11-23T11:18:46;14.75;;;6.75;;
56537;SDS011;42435;53.292;6.000;2022-11-23T11:21:19;14.27;;;4.93;;
56537;SDS011;42435;53.292;6.000;2022-11-23T11:23:53;12.98;;;4.80;;
56537;SDS011;42435;53.292;6.000;2022-11-23T11:26:31;10.63;;;4.57;;
56537;SDS011;42435;53.292;6.000;2022-11-23T11:29:03;12.18;;;4.57;;
56537;SDS011;42435;53.292;6.000;2022-11-23T11:39:44;9.32;;;3.33;;
56537;SDS011;42435;53.292;6.000;2022-11-23T11:42:32;13.77;;;4.93;;
56537;SDS011;42435;53.292;6.000;2022-11-23T11:44:59;10.52;;;4.30;;
56537;SDS011;42435;53.292;6.000;2022-11-23T11:47:31;10.82;;;4.05;;
56537;SDS011;42435;53.292;6.000;2022-11-23T11:50:23;16.73;;;3.55;;
56537;SDS011;42435;53.292;6.000;2022-11-23T11:53:06;12.57;;;3.65;;
56537;SDS011;42435;53.292;6.000;2022-11-23T11:58:10;8.63;;;3.75;;
56537;SDS011;42435;53.292;6.000;2022-11-23T12:00:40;14.25;;;3.60;;
56537;SDS011;42435;53.292;6.000;2022-11-23T12:05:54;8.68;;;3.42;;
56537;SDS011;42435;53.292;6.000;2022-11-23T12:08:46;14.75;;;3.65;;
56537;SDS011;42435;53.292;6.000;2022-11-23T12:11:16;12.20;;;3.70;;
56537;SDS011;42435;53.292;6.000;2022-11-23T12:13:43;15.77;;;5.70;;
56537;SDS011;42435;53.292;6.000;2022-11-23T12:16:25;13.15;;;4.78;;
56537;SDS011;42435;53.292;6.000;2022-11-23T12:25:10;10.02;;;3.20;;
56537;SDS011;42435;53.292;6.000;2022-11-23T12:27:52;10.57;;;3.15;;
56537;SDS011;42435;53.292;6.000;2022-11-23T12:36:25;11.77;;;3.15;;
56537;SDS011;42435;53.292;6.000;2022-11-23T12:49:54;7.28;;;2.97;;
56537;SDS011;42435;53.292;6.000;2022-11-23T12:52:56;9.90;;;3.28;;
56537;SDS011;42435;53.292;6.000;2022-11-23T12:55:32;11.25;;;2.53;;
56537;SDS011;42435;53.292;6.000;2022-11-23T13:00:44;11.30;;;2.80;;
56537;SDS011;42435;53.292;6.000;2022-11-23T13:03:20;8.55;;;2.70;;
56537;SDS011;42435;53.292;6.000;2022-11-23T13:22:35;8.95;;;2.72;;
56537;SDS011;42435;53.292;6.000;2022-11-23T13:27:42;15.35;;;3.90;;
56537;SDS011;42435;53.292;6.000;2022-11-23T13:30:13;10.63;;;2.40;;
56537;SDS011;42435;53.292;6.000;2022-11-23T13:32:58;7.45;;;2.55;;
56537;SDS011;42435;53.292;6.000;2022-11-23T13:40:30;8.98;;;2.42;;
56537;SDS011;42435;53.292;6.000;2022-11-23T13:45:42;8.80;;;2.13;;
56537;SDS011;42435;53.292;6.000;2022-11-23T13:50:35;11.75;;;2.53;;
56537;SDS011;42435;53.292;6.000;2022-11-23T13:59:24;12.65;;;2.30;;
56537;SDS011;42435;53.292;6.000;2022-11-23T14:04:36;6.70;;;2.17;;
56537;SDS011;42435;53.292;6.000;2022-11-23T14:07:23;10.00;;;1.90;;
56537;SDS011;42435;53.292;6.000;2022-11-23T14:12:35;11.90;;;2.08;;
56537;SDS011;42435;53.292;6.000;2022-11-23T14:34:17;13.70;;;2.53;;
56537;SDS011;42435;53.292;6.000;2022-11-23T14:42:19;8.52;;;2.05;;
56537;SDS011;42435;53.292;6.000;2022-11-23T14:44:47;5.47;;;1.73;;
56537;SDS011;42435;53.292;6.000;2022-11-23T14:47:23;9.43;;;2.45;;
56537;SDS011;42435;53.292;6.000;2022-11-23T14:49:54;7.63;;;1.70;;
56537;SDS011;42435;53.292;6.000;2022-11-23T14:52:21;9.05;;;1.85;;
56537;SDS011;42435;53.292;6.000;2022-11-23T14:54:54;8.10;;;1.75;;
56537;SDS011;42435;53.292;6.000;2022-11-23T14:57:22;6.78;;;1.95;;
56537;SDS011;42435;53.292;6.000;2022-11-23T14:59:51;7.50;;;1.95;;
56537;SDS011;42435;53.292;6.000;2022-11-23T15:02:21;6.80;;;2.25;;
56537;SDS011;42435;53.292;6.000;2022-11-23T15:04:52;8.98;;;3.20;;
56537;SDS011;42435;53.292;6.000;2022-11-23T15:07:27;6.35;;;3.15;;
56537;SDS011;42435;53.292;6.000;2022-11-23T15:12:47;9.27;;;2.08;;
56537;SDS011;42435;53.292;6.000;2022-11-23T15:17:55;8.60;;;2.58;;
56537;SDS011;42435;53.292;6.000;2022-11-23T15:20:27;4.93;;;2.30;;
56537;SDS011;42435;53.292;6.000;2022-11-23T15:22:58;6.35;;;1.70;;
56537;SDS011;42435;53.292;6.000;2022-11-23T15:25:28;9.38;;;3.15;;
56537;SDS011;42435;53.292;6.000;2022-11-23T15:27:54;8.07;;;4.80;;
56537;SDS011;42435;53.292;6.000;2022-11-23T15:30:21;10.77;;;6.35;;
56537;SDS011;42435;53.292;6.000;2022-11-23T15:32:57;11.48;;;5.07;;
56537;SDS011;42435;53.292;6.000;2022-11-23T15:35:28;10.57;;;2.38;;
56537;SDS011;42435;53.292;6.000;2022-11-23T15:37:59;9.10;;;2.65;;
56537;SDS011;42435;53.292;6.000;2022-11-23T15:40:27;7.95;;;2.38;;
56537;SDS011;42435;53.292;6.000;2022-11-23T15:42:59;8.07;;;1.95;;
56537;SDS011;42435;53.292;6.000;2022-11-23T15:50:50;8.13;;;2.70;;
56537;SDS011;42435;53.292;6.000;2022-11-23T15:53:18;5.43;;;2.58;;
56537;SDS011;42435;53.292;6.000;2022-11-23T15:55:59;8.77;;;2.55;;
56537;SDS011;42435;53.292;6.000;2022-11-23T15:58:27;5.80;;;2.30;;
56537;SDS011;42435;53.292;6.000;2022-11-23T16:00:55;10.18;;;2.50;;
56537;SDS011;42435;53.292;6.000;2022-11-23T16:06:13;8.40;;;5.85;;
56537;SDS011;42435;53.292;6.000;2022-11-23T16:08:43;7.18;;;2.63;;
56537;SDS011;42435;53.292;6.000;2022-11-23T16:11:28;8.73;;;2.70;;
56537;SDS011;42435;53.292;6.000;2022-11-23T16:17:04;7.22;;;3.50;;
56537;SDS011;42435;53.292;6.000;2022-11-23T16:19:44;9.55;;;3.17;;
56537;SDS011;42435;53.292;6.000;2022-11-23T16:22:24;7.68;;;3.10;;
56537;SDS011;42435;53.292;6.000;2022-11-23T16:27:55;12.60;;;3.88;;
56537;SDS011;42435;53.292;6.000;2022-11-23T16:30:33;11.00;;;2.55;;
56537;SDS011;42435;53.292;6.000;2022-11-23T16:33:00;9.10;;;2.67;;
56537;SDS011;42435;53.292;6.000;2022-11-23T16:35:25;9.25;;;2.70;;
56537;SDS011;42435;53.292;6.000;2022-11-23T16:37:51;6.40;;;2.30;;
56537;SDS011;42435;53.292;6.000;2022-11-23T16:40:17;9.15;;;5.50;;
56537;SDS011;42435;53.292;6.000;2022-11-23T16:42:42;9.35;;;3.42;;
56537;SDS011;42435;53.292;6.000;2022-11-23T16:45:11;10.80;;;4.03;;
56537;SDS011;42435;53.292;6.000;2022-11-23T16:47:49;7.15;;;2.15;;
56537;SDS011;42435;53.292;6.000;2022-11-23T16:50:19;8.70;;;3.25;;
56537;SDS011;42435;53.292;6.000;2022-11-23T16:52:46;9.90;;;3.30;;
56537;SDS011;42435;53.292;6.000;2022-11-23T16:55:11;9.85;;;3.58;;
56537;SDS011;42435;53.292;6.000;2022-11-23T16:57:37;7.55;;;4.32;;
56537;SDS011;42435;53.292;6.000;2022-11-23T17:00:04;6.95;;;2.75;;
56537;SDS011;42435;53.292;6.000;2022-11-23T17:02:32;7.95;;;3.13;;
56537;SDS011;42435;53.292;6.000;2022-11-23T17:04:57;15.48;;;3.80;;
56537;SDS011;42435;53.292;6.000;2022-11-23T17:07:23;7.88;;;3.92;;
56537;SDS011;42435;53.292;6.000;2022-11-23T17:09:49;9.13;;;3.13;;
56537;SDS011;42435;53.292;6.000;2022-11-23T17:12:15;9.35;;;4.03;;
56537;SDS011;42435;53.292;6.000;2022-11-23T17:14:43;11.15;;;6.05;;